Time;durP1;ratioP1;P1;durP2;ratioP2;P2;SDS_P1;SDS_P2;PMS_P1;PMS_P2;Temp;Humidity;BMP_temperature;BMP_pressure;BME280_temperature;BME280_humidity;BME280_pressure;Samples;Min_cycle;Max_cycle;Signal;HPM_P1;HPM_P2
2023/10/01 00:02:59;;;;;;;0.63;0.38;;;;;;;18.90;100.00;102341.69;10391436;28;20497;-77
2023/10/01 00:08:02;;;;;;;1.27;0.75;;;;;;;18.82;100.00;102345.91;10391205;28;20539;-78
2023/10/01 00:13:04;;;;;;;1.88;1.15;;;;;;;18.84;100.00;102329.41;10375906;28;20045;-78
2023/10/01 00:18:06;;;;;;;2.40;1.40;;;;;;;19.01;100.00;102342.75;10374733;28;20100;-77
2023/10/01 00:23:08;;;;;;;1.23;0.85;;;;;;;18.83;100.00;102359.03;10390866;28;20053;-77
2023/10/01 00:28:10;;;;;;;1.00;0.65;;;;;;;18.52;100.00;102355.94;10357939;28;20103;-77
2023/10/01 00:33:13;;;;;;;0.63;0.40;;;;;;;18.92;100.00;102353.06;10373742;28;20060;-77
2023/10/01 00:38:16;;;;;;;1.33;1.00;;;;;;;18.56;100.00;102341.19;10390130;28;20433;-77
2023/10/01 00:43:24;;;;;;;2.80;1.40;;;;;;;18.84;100.00;102337.25;10390203;28;20045;-77
2023/10/01 00:48:27;;;;;;;3.63;1.05;;;;;;;18.76;100.00;102324.94;10390255;28;20046;-77
2023/10/01 00:53:29;;;;;;;1.65;0.88;;;;;;;18.41;100.00;102327.91;10357508;28;20119;-77
2023/10/01 00:58:31;;;;;;;0.98;0.50;;;;;;;18.29;100.00;102324.22;10390027;28;20117;-78
2023/10/01 01:03:34;;;;;;;1.42;1.10;;;;;;;18.19;100.00;102301.47;10389635;28;20539;-78
2023/10/01 01:08:46;;;;;;;1.40;0.68;;;;;;;18.26;100.00;102290.28;10345799;28;20045;-78
2023/10/01 01:13:50;;;;;;;1.40;1.08;;;;;;;18.76;100.00;102314.50;10372109;28;20054;-77
2023/10/01 01:18:51;;;;;;;0.40;0.40;;;;;;;18.79;100.00;102304.13;10348821;28;20088;-77
2023/10/01 01:23:54;;;;;;;2.08;0.63;;;;;;;18.38;100.00;102300.91;10348628;28;20137;-77
2023/10/01 01:28:58;;;;;;;0.63;0.43;;;;;;;18.38;100.00;102300.91;10332345;28;20053;-77
2023/10/01 01:34:02;;;;;;;1.48;0.68;;;;;;;18.82;100.00;102296.31;10348515;28;20105;-78
2023/10/01 01:39:35;;;;;;;0.75;0.35;;;;;;;18.69;100.00;102298.75;10377472;28;20049;-77
2023/10/01 01:44:37;;;;;;;0.50;0.50;;;;;;;18.30;100.00;102292.06;10363139;28;20046;-78
2023/10/01 01:49:42;;;;;;;1.75;1.08;;;;;;;18.22;100.00;102278.91;10375767;28;20400;-77
2023/10/01 01:54:45;;;;;;;0.85;0.85;;;;;;;18.13;100.00;102272.69;10396478;28;20049;-78
2023/10/01 01:59:47;;;;;;;1.50;0.70;;;;;;;17.77;100.00;102262.47;10363508;28;20046;-78
2023/10/01 02:05:00;;;;;;;1.08;0.82;;;;;;;17.67;100.00;102264.88;10380270;28;20054;-77
2023/10/01 02:10:07;;;;;;;2.45;0.95;;;;;;;17.87;100.00;102267.84;10380653;28;20049;-77
2023/10/01 02:15:09;;;;;;;1.63;0.68;;;;;;;17.70;100.00;102268.44;10379511;28;20069;-77
2023/10/01 02:20:20;;;;;;;1.10;0.85;;;;;;;17.70;100.00;102260.63;10379091;28;20050;-77
2023/10/01 02:25:36;;;;;;;1.48;1.13;;;;;;;17.43;100.00;102256.66;10395642;28;20128;-78
2023/10/01 02:30:41;;;;;;;1.55;1.30;;;;;;;17.96;100.00;102257.63;10355144;28;20480;-78
2023/10/01 02:35:49;;;;;;;6.80;0.88;;;;;;;18.24;100.00;102265.91;10322230;28;20057;-78
2023/10/01 02:40:50;;;;;;;1.55;1.23;;;;;;;18.15;100.00;102260.53;10322934;28;20046;-77
2023/10/01 02:45:52;;;;;;;1.38;1.00;;;;;;;18.42;100.00;102262.69;10394798;28;20054;-77
2023/10/01 02:50:54;;;;;;;3.45;1.20;;;;;;;18.29;100.00;102260.75;10394434;28;20064;-79
2023/10/01 02:56:02;;;;;;;3.13;1.33;;;;;;;17.91;100.00;102254.00;10393133;28;20485;-77
2023/10/01 03:01:13;;;;;;;2.13;1.45;;;;;;;17.68;100.00;102258.84;10394543;28;20092;-77
2023/10/01 03:06:15;;;;;;;3.20;0.88;;;;;;;18.07;100.00;102266.50;10394014;28;20050;-78
2023/10/01 03:11:22;;;;;;;2.22;1.58;;;;;;;18.00;100.00;102256.81;10393637;28;20507;-78
2023/10/01 03:16:42;;;;;;;0.57;0.47;;;;;;;18.04;100.00;102249.91;10393746;28;20088;-77
2023/10/01 03:27:24;;;;;;;0.55;0.47;;;;;;;18.00;100.00;102249.00;10378269;28;19922;-78
2023/10/01 03:32:27;;;;;;;1.00;0.55;;;;;;;18.22;100.00;102244.13;10376473;28;20417;-77
2023/10/01 03:37:29;;;;;;;1.33;0.93;;;;;;;18.11;100.00;102257.00;10392836;28;20038;-77
2023/10/01 03:42:33;;;;;;;1.40;0.70;;;;;;;17.72;100.00;102253.72;10375985;28;20088;-78
2023/10/01 03:47:35;;;;;;;1.70;1.13;;;;;;;17.63;100.00;102242.25;10392247;28;20042;-78
2023/10/01 03:52:41;;;;;;;1.00;0.63;;;;;;;17.79;100.00;102246.00;10376317;28;20050;-77
2023/10/01 03:57:54;;;;;;;1.27;0.93;;;;;;;18.33;100.00;102249.50;10375713;28;20046;-77
2023/10/01 04:02:56;;;;;;;2.53;1.33;;;;;;;17.87;100.00;102244.41;10391827;28;20070;-78
2023/10/01 04:08:10;;;;;;;0.75;0.38;;;;;;;17.90;100.00;102249.69;10394092;28;20141;-77
2023/10/01 04:13:20;;;;;;;0.63;0.63;;;;;;;17.88;100.00;102246.16;10379517;28;20112;-78
2023/10/01 04:18:24;;;;;;;4.65;2.97;;;;;;;18.34;100.00;102246.94;10391341;28;20536;-78
2023/10/01 04:23:33;;;;;;;0.98;0.68;;;;;;;17.59;100.00;102250.00;10392209;28;20088;-77
2023/10/01 04:28:46;;;;;;;1.58;0.45;;;;;;;17.97;100.00;102248.97;10375830;28;20077;-78
2023/10/01 04:33:49;;;;;;;0.40;0.30;;;;;;;18.16;100.00;102250.13;10391437;28;20057;-78
2023/10/01 04:39:00;;;;;;;0.80;0.60;;;;;;;17.96;100.00;102248.91;10363575;28;20472;-78
2023/10/01 04:44:08;;;;;;;0.70;0.52;;;;;;;18.23;100.00;102243.25;10375912;28;20128;-78
2023/10/01 04:49:27;;;;;;;1.10;0.80;;;;;;;18.25;100.00;102246.78;10393790;28;20042;-78
2023/10/01 04:54:39;;;;;;;0.95;0.80;;;;;;;17.65;100.00;102236.22;10397115;28;20420;-78
2023/10/01 04:59:56;;;;;;;1.05;0.80;;;;;;;17.85;100.00;102236.56;10382006;28;20075;-79
2023/10/01 05:05:09;;;;;;;0.45;0.28;;;;;;;17.96;100.00;102241.09;10375669;28;20050;-78
2023/10/01 05:10:13;;;;;;;0.95;0.63;;;;;;;18.05;100.00;102236.03;10391031;28;20099;-78
2023/10/01 05:15:17;;;;;;;2.88;1.23;;;;;;;17.87;100.00;102242.66;10358874;28;20046;-77
2023/10/01 05:20:19;;;;;;;2.13;0.82;;;;;;;18.07;100.00;102252.59;10381446;28;20049;-77
2023/10/01 05:25:24;;;;;;;3.88;1.23;;;;;;;18.04;100.00;102250.81;10381733;28;20145;-78
2023/10/01 05:30:35;;;;;;;2.13;0.65;;;;;;;17.72;100.00;102258.06;10365733;28;20444;-78
2023/10/01 05:35:43;;;;;;;1.52;0.95;;;;;;;18.18;100.00;102252.75;10381330;28;20080;-77
2023/10/01 05:40:45;;;;;;;0.90;0.75;;;;;;;18.24;100.00;102247.63;10397297;28;20073;-78
2023/10/01 05:45:52;;;;;;;0.90;0.75;;;;;;;17.90;100.00;102263.56;10365472;28;20053;-78
2023/10/01 05:50:57;;;;;;;2.28;0.60;;;;;;;18.23;100.00;102261.53;10397393;28;20053;-78
2023/10/01 05:56:15;;;;;;;1.65;0.65;;;;;;;18.41;100.00;102266.16;10380190;28;20050;-78
2023/10/01 06:01:21;;;;;;;2.45;1.67;;;;;;;18.33;100.00;102262.53;10379979;28;20050;-78
2023/10/01 06:06:26;;;;;;;0.90;0.57;;;;;;;18.36;100.00;102267.81;10381001;28;20466;-77
2023/10/01 06:11:38;;;;;;;3.17;1.70;;;;;;;18.14;100.00;102270.09;10379916;28;20050;-78
2023/10/01 06:16:40;;;;;;;2.85;1.00;;;;;;;18.37;100.00;102267.84;10381200;28;20050;-78
2023/10/01 06:21:42;;;;;;;1.00;0.57;;;;;;;18.50;100.00;102271.50;10379635;28;20061;-78
2023/10/01 06:26:45;;;;;;;2.03;0.85;;;;;;;18.66;100.00;102274.34;10381058;28;20424;-78
2023/10/01 06:31:48;;;;;;;3.33;0.57;;;;;;;18.89;100.00;102279.88;10378876;28;20042;-77
2023/10/01 06:36:57;;;;;;;0.17;0.17;;;;;;;18.73;100.00;102277.94;10378526;28;20073;-78
2023/10/01 06:42:23;;;;;;;0.52;0.45;;;;;;;19.14;100.00;102275.00;10380745;28;20038;-78
2023/10/01 06:47:26;;;;;;;1.00;0.47;;;;;;;18.86;100.00;102274.63;10361963;28;20074;-78
2023/10/01 06:52:34;;;;;;;0.88;0.57;;;;;;;18.39;100.00;102268.75;10362665;28;20041;-77
2023/10/01 06:57:38;;;;;;;1.42;0.50;;;;;;;18.74;100.00;102261.38;10362793;28;20489;-78
2023/10/01 07:02:40;;;;;;;0.63;0.45;;;;;;;19.02;100.00;102271.38;10361874;28;20096;-78
2023/10/01 07:07:48;;;;;;;1.10;0.77;;;;;;;18.59;100.00;102262.94;10363463;28;20513;-78
2023/10/01 07:13:04;;;;;;;1.08;0.95;;;;;;;18.94;100.00;102259.97;10378508;28;20076;-79
2023/10/01 07:18:15;;;;;;;1.13;0.88;;;;;;;19.32;100.00;102266.50;10352835;28;20137;-78
2023/10/01 07:23:21;;;;;;;4.70;1.58;;;;;;;18.71;100.00;102257.91;10354012;28;20053;-78
2023/10/01 07:28:24;;;;;;;1.17;0.40;;;;;;;19.39;100.00;102262.22;10383390;28;20476;-78
2023/10/01 07:33:28;;;;;;;0.30;0.20;;;;;;;19.41;100.00;102265.72;10381736;28;20046;-77
2023/10/01 07:38:46;;;;;;;0.52;0.20;;;;;;;19.89;100.00;102277.56;10392173;28;20068;-78
2023/10/01 07:43:49;;;;;;;5.22;1.10;;;;;;;20.46;100.00;102274.50;10392335;28;20408;-77
2023/10/01 07:48:51;;;;;;;2.08;0.82;;;;;;;19.62;100.00;102284.22;10347934;28;20397;-78
2023/10/01 07:53:57;;;;;;;2.80;0.40;;;;;;;20.78;100.00;102268.63;10375833;28;20512;-79
2023/10/01 07:59:17;;;;;;;3.35;0.63;;;;;;;22.07;100.00;102280.34;10391422;28;20069;-77
2023/10/01 08:09:39;;;;;;;;;;;;;;;21.14;100.00;102280.13;10392335;28;20042;-77
2023/10/01 08:14:41;;;;;;;0.20;0.20;;;;;;;21.15;100.00;102287.13;10376246;28;20334;-77
2023/10/01 08:19:49;;;;;;;0.45;0.40;;;;;;;22.07;100.00;102301.31;10390860;28;20058;-77
2023/10/01 08:24:51;;;;;;;0.55;0.45;;;;;;;21.94;100.00;102294.31;10374354;28;20539;-78
2023/10/01 08:30:18;;;;;;;3.25;1.13;;;;;;;20.51;100.00;102299.00;10389215;28;20092;-78
2023/10/01 08:35:25;;;;;;;1.60;0.90;;;;;;;22.89;100.00;102287.22;10388486;28;20046;-77
2023/10/01 08:40:29;;;;;;;1.63;0.73;;;;;;;22.43;100.00;102291.69;10373186;28;20441;-78
2023/10/01 08:45:37;;;;;;;4.22;1.15;;;;;;;22.54;100.00;102280.28;10376733;28;20120;-78
2023/10/01 08:50:42;;;;;;;0.15;0.15;;;;;;;22.71;100.00;102269.75;10390061;28;20042;-77
2023/10/01 09:00:56;;;;;;;1.95;1.23;;;;;;;24.67;100.00;102272.78;10371763;28;20050;-77
2023/10/01 09:06:16;;;;;;;0.52;0.30;;;;;;;23.32;100.00;102281.78;10387692;28;20060;-76
2023/10/01 09:11:47;;;;;;;1.27;1.10;;;;;;;24.74;100.00;102278.88;10370751;28;20093;-77
2023/10/01 09:16:57;;;;;;;0.60;0.45;;;;;;;24.01;100.00;102287.47;10321210;28;20045;-78
2023/10/01 09:22:22;;;;;;;1.05;0.68;;;;;;;23.16;100.00;102280.06;10362947;28;20046;-77
2023/10/01 09:27:30;;;;;;;2.80;0.95;;;;;;;24.28;100.00;102280.19;10373248;28;20052;-76
2023/10/01 09:32:51;;;;;;;0.68;0.47;;;;;;;24.60;100.00;102277.25;10354564;28;20128;-78
2023/10/01 09:38:10;;;;;;;0.35;0.30;;;;;;;24.59;100.00;102279.88;10371043;28;20077;-77
2023/10/01 09:43:30;;;;;;;2.38;0.85;;;;;;;24.91;100.00;102281.31;10371620;28;20519;-77
2023/10/01 09:48:37;;;;;;;1.40;0.70;;;;;;;26.34;100.00;102275.66;10379731;28;20548;-78
2023/10/01 09:54:01;;;;;;;3.15;1.00;;;;;;;25.22;100.00;102278.28;10352653;28;20076;-78
2023/10/01 09:59:06;;;;;;;0.75;0.45;;;;;;;25.28;100.00;102271.13;10372234;28;20140;-78
2023/10/01 10:04:12;;;;;;;0.98;0.75;;;;;;;25.10;100.00;102279.31;10375441;28;20045;-77
2023/10/01 10:09:26;;;;;;;5.10;1.40;;;;;;;25.79;100.00;102266.91;10394969;28;20111;-78
2023/10/01 10:14:28;;;;;;;0.82;0.57;;;;;;;25.82;100.00;102266.84;10395108;28;20460;-77
2023/10/01 10:19:31;;;;;;;1.10;0.70;;;;;;;26.55;100.00;102262.91;10377825;28;20545;-77
2023/10/01 10:24:45;;;;;;;1.85;1.05;;;;;;;25.70;100.00;102267.03;10377637;28;20150;-78
2023/10/01 10:29:57;;;;;;;1.48;0.90;;;;;;;26.20;100.00;102275.91;10369784;28;20541;-78
2023/10/01 10:35:04;;;;;;;0.43;0.40;;;;;;;26.92;100.00;102264.84;10394040;28;20060;-78
2023/10/01 10:45:24;;;;;;;0.35;0.32;;;;;;;26.62;100.00;102274.25;10382785;28;20136;-78
2023/10/01 10:50:45;;;;;;;1.27;0.82;;;;;;;26.47;100.00;102265.72;10376702;28;20596;-77
2023/10/01 10:55:51;;;;;;;2.05;1.77;;;;;;;27.39;100.00;102256.72;10392964;28;20099;-76
2023/10/01 11:00:53;;;;;;;4.03;0.60;;;;;;;27.75;100.00;102247.97;10376261;28;20052;-78
2023/10/01 11:05:55;;;;;;;1.35;1.00;;;;;;;25.66;100.00;102245.97;10378861;28;20075;-77
2023/10/01 11:11:10;;;;;;;1.48;0.93;;;;;;;26.11;100.00;102237.31;10377390;28;20071;-78
2023/10/01 11:16:18;;;;;;;1.27;1.08;;;;;;;28.00;100.00;102242.91;10374360;28;20497;-76
2023/10/01 11:21:31;;;;;;;1.25;0.77;;;;;;;27.22;100.00;102234.19;10392299;28;20113;-78
2023/10/01 11:26:33;;;;;;;2.85;1.80;;;;;;;26.86;100.00;102231.47;10392696;28;20081;-78
2023/10/01 11:31:38;;;;;;;2.42;1.20;;;;;;;27.19;100.00;102228.09;10393083;28;20041;-77
2023/10/01 11:36:40;;;;;;;2.63;0.80;;;;;;;26.91;100.00;102224.31;10345660;28;20042;-77
2023/10/01 11:41:43;;;;;;;0.70;0.63;;;;;;;26.71;100.00;102210.59;10359909;28;20046;-77
2023/10/01 11:46:57;;;;;;;2.65;2.25;;;;;;;26.48;100.00;102208.44;10376471;28;20049;-78
2023/10/01 11:52:14;;;;;;;0.98;0.73;;;;;;;26.04;100.00;102209.25;10365210;28;20108;-78
2023/10/01 11:57:35;;;;;;;3.25;0.52;;;;;;;27.30;100.00;102206.66;10392324;28;20063;-78
2023/10/01 12:02:43;;;;;;;0.40;0.30;;;;;;;27.02;100.00;102199.38;10375714;28;20397;-78
2023/10/01 12:07:45;;;;;;;0.80;0.65;;;;;;;27.06;100.00;102191.34;10375122;28;20081;-78
2023/10/01 12:12:47;;;;;;;1.10;0.80;;;;;;;26.42;100.00;102193.59;10376612;28;20133;-77
2023/10/01 12:17:49;;;;;;;0.57;0.43;;;;;;;27.20;100.00;102183.09;10360323;28;20136;-77
2023/10/01 12:23:10;;;;;;;1.20;0.65;;;;;;;26.28;100.00;102186.81;10390725;28;20456;-77
2023/10/01 12:28:29;;;;;;;2.47;0.85;;;;;;;26.92;100.00;102189.00;10373876;28;20045;-77
2023/10/01 12:33:38;;;;;;;0.83;0.63;;;;;;;28.29;100.00;102175.91;10373905;28;20045;-77
2023/10/01 12:38:41;;;;;;;0.88;0.70;;;;;;;27.53;100.00;102191.13;10374087;28;20050;-78
2023/10/01 12:43:42;;;;;;;0.25;0.22;;;;;;;26.49;100.00;102179.34;10390196;28;20046;-78
2023/10/01 12:54:06;;;;;;;4.68;1.45;;;;;;;26.83;100.00;102173.38;10372322;28;20398;-76
2023/10/01 12:59:09;;;;;;;1.02;0.68;;;;;;;26.76;100.00;102174.41;10389494;28;20056;-77
2023/10/01 13:04:32;;;;;;;0.63;0.40;;;;;;;27.11;100.00;102170.09;10363613;28;20054;-78
2023/10/01 13:14:45;;;;;;;1.38;0.98;;;;;;;27.65;100.00;102160.84;10371821;28;20084;-79
2023/10/01 13:19:48;;;;;;;3.80;1.73;;;;;;;26.84;100.00;102153.09;10376879;28;20049;-78
2023/10/01 13:24:56;;;;;;;1.02;0.52;;;;;;;27.00;100.00;102153.59;10371990;28;20045;-78
2023/10/01 13:30:18;;;;;;;0.15;0.10;;;;;;;27.66;100.00;102143.19;10364530;28;20069;-77
2023/10/01 13:35:49;;;;;;;0.90;0.55;;;;;;;26.98;100.00;102136.91;10388439;28;20046;-78
2023/10/01 14:13:03;;;;;;;0.32;0.25;;;;;;;27.45;100.00;102112.84;10370940;28;20050;-78
2023/10/01 14:18:08;;;;;;;0.60;0.50;;;;;;;27.14;100.00;102108.31;10395058;28;20046;-78
2023/10/01 14:23:26;;;;;;;0.95;0.47;;;;;;;26.92;100.00;102108.84;10394499;28;20038;-77
2023/10/01 14:28:28;;;;;;;0.60;0.25;;;;;;;27.16;100.00;102101.22;10394906;28;20053;-77
2023/10/01 14:33:30;;;;;;;1.38;0.20;;;;;;;26.73;100.00;102093.34;10394593;28;20120;-78
2023/10/01 14:38:39;;;;;;;0.30;0.30;;;;;;;27.57;100.00;102083.41;10378691;28;20128;-76
2023/10/01 14:43:48;;;;;;;2.20;0.38;;;;;;;27.32;100.00;102083.16;10393020;28;20117;-77
2023/10/01 14:48:50;;;;;;;1.60;1.02;;;;;;;27.61;100.00;102070.94;10374686;28;20033;-77
2023/10/01 14:53:54;;;;;;;1.00;0.38;;;;;;;27.44;100.00;102082.84;10375273;28;20132;-77
2023/10/01 14:58:57;;;;;;;0.25;0.25;;;;;;;27.15;100.00;102073.88;10389900;28;20120;-78
2023/10/01 15:03:59;;;;;;;1.13;0.30;;;;;;;27.18;100.00;102078.25;10392932;28;20453;-77
2023/10/01 15:09:01;;;;;;;4.20;1.85;;;;;;;27.54;100.00;102065.84;10392320;28;20049;-77
2023/10/01 15:14:11;;;;;;;2.78;0.95;;;;;;;27.04;100.00;102068.00;10356341;28;20065;-78
2023/10/01 15:19:18;;;;;;;2.60;0.85;;;;;;;27.49;100.00;102058.91;10387543;28;20056;-76
2023/10/01 15:24:21;;;;;;;0.75;0.63;;;;;;;27.47;100.00;102060.75;10377272;28;20046;-78
2023/10/01 15:29:30;;;;;;;5.65;3.47;;;;;;;26.94;100.00;102053.25;10359736;28;20046;-76
2023/10/01 15:34:38;;;;;;;6.40;3.15;;;;;;;27.18;100.00;102049.16;10359698;28;20068;-77
2023/10/01 15:39:40;;;;;;;3.05;1.77;;;;;;;27.22;100.00;102051.63;10392130;28;20049;-77
2023/10/01 15:44:53;;;;;;;1.10;0.88;;;;;;;26.91;100.00;102043.63;10363161;28;20409;-78
2023/10/01 15:50:05;;;;;;;3.60;1.50;;;;;;;26.94;100.00;102047.97;10355726;28;20060;-77
2023/10/01 15:55:07;;;;;;;1.63;1.33;;;;;;;26.97;100.00;102047.91;10352420;28;20042;-78
2023/10/01 16:00:25;;;;;;;8.10;3.38;;;;;;;27.45;100.00;102049.34;10390610;28;20069;-77
2023/10/01 16:05:42;;;;;;;4.43;2.15;;;;;;;27.17;100.00;102050.03;10417244;23;20508;-77
2023/10/01 16:10:45;;;;;;;2.45;1.30;;;;;;;27.51;100.00;102046.53;10453637;28;20522;-78
2023/10/01 16:15:49;;;;;;;4.22;3.30;;;;;;;27.29;100.00;102054.16;10436452;28;20118;-78
2023/10/01 16:20:50;;;;;;;3.45;2.13;;;;;;;27.23;100.00;102056.03;10455642;28;20047;-77
2023/10/01 16:25:52;;;;;;;4.22;1.38;;;;;;;26.51;100.00;102056.00;10437305;28;20036;-77
2023/10/01 16:31:02;;;;;;;1.83;1.10;;;;;;;26.27;100.00;102047.72;10436686;28;20447;-78
2023/10/01 16:36:04;;;;;;;3.20;1.98;;;;;;;26.01;100.00;102034.19;10429772;28;20084;-77
2023/10/01 16:41:10;;;;;;;0.73;0.73;;;;;;;25.78;100.00;102039.00;10436781;28;20063;-77
2023/10/01 16:46:18;;;;;;;1.65;0.77;;;;;;;25.56;100.00;102040.31;10453314;28;20143;-77
2023/10/01 16:51:23;;;;;;;1.67;1.10;;;;;;;25.50;100.00;102036.91;10453393;28;20049;-78
2023/10/01 16:56:27;;;;;;;1.63;1.05;;;;;;;25.77;100.00;102047.81;10441220;28;20385;-77
2023/10/01 17:01:34;;;;;;;0.65;0.65;;;;;;;25.32;100.00;102051.28;10452859;28;20511;-77
2023/10/01 17:06:38;;;;;;;0.70;0.40;;;;;;;25.42;100.00;102041.47;10441465;28;20132;-77
2023/10/01 17:11:41;;;;;;;1.58;0.98;;;;;;;25.75;100.00;102046.13;10452305;28;20041;-77
2023/10/01 17:16:45;;;;;;;5.95;0.80;;;;;;;25.93;100.00;102040.47;10437676;28;20099;-77
2023/10/01 17:21:47;;;;;;;1.02;0.60;;;;;;;25.95;100.00;102051.88;10454183;28;20500;-77
2023/10/01 17:26:49;;;;;;;1.15;0.63;;;;;;;25.70;100.00;102040.94;10453275;28;20040;-77
2023/10/01 17:31:59;;;;;;;0.70;0.20;;;;;;;25.68;100.00;102044.50;10436604;28;20059;-77
2023/10/01 17:37:03;;;;;;;;;;;;;;;25.56;100.00;102043.84;10453668;28;20068;-77
2023/10/01 17:42:07;;;;;;;1.08;0.45;;;;;;;24.82;100.00;102034.56;10454463;28;19955;-77
2023/10/01 17:47:19;;;;;;;0.00;0.00;;;;;;;25.00;100.00;102047.41;10451596;28;20450;-77
2023/10/01 17:52:25;;;;;;;0.10;0.10;;;;;;;25.05;100.00;102046.50;10436772;28;20064;-77
2023/10/01 17:57:34;;;;;;;0.20;0.10;;;;;;;24.86;100.00;102041.50;10431099;28;20060;-77
2023/10/01 18:02:44;;;;;;;0.00;0.00;;;;;;;24.36;100.00;102047.47;10452837;28;20041;-77
2023/10/01 18:07:53;;;;;;;2.00;0.38;;;;;;;24.17;100.00;102045.97;10436176;28;20049;-77
2023/10/01 18:12:57;;;;;;;0.80;0.30;;;;;;;24.24;100.00;102047.63;10436256;28;20056;-77
2023/10/01 18:17:58;;;;;;;0.30;0.30;;;;;;;24.42;100.00;102040.38;10452959;28;20396;-77
2023/10/01 18:23:00;;;;;;;0.70;0.35;;;;;;;24.42;100.00;102036.00;10436037;28;20047;-77
2023/10/01 18:28:02;;;;;;;0.60;0.40;;;;;;;24.61;100.00;102044.47;10449383;28;20114;-77
2023/10/01 18:33:04;;;;;;;1.85;0.50;;;;;;;24.51;100.00;102049.00;10459169;28;20503;-77
2023/10/01 18:38:11;;;;;;;0.75;0.47;;;;;;;24.01;100.00;102040.03;10458725;28;20045;-77
2023/10/01 18:43:17;;;;;;;0.63;0.25;;;;;;;23.98;100.00;102050.63;10455551;28;20045;-77
2023/10/01 18:48:41;;;;;;;0.77;0.40;;;;;;;24.16;100.00;102042.47;10458500;28;20044;-77
2023/10/01 18:53:42;;;;;;;4.78;1.05;;;;;;;23.73;100.00;102045.59;10458445;28;20063;-77
2023/10/01 18:58:50;;;;;;;4.05;0.50;;;;;;;23.81;100.00;102042.88;10434160;28;20057;-77
2023/10/01 19:03:52;;;;;;;0.47;0.32;;;;;;;23.52;100.00;102036.16;10458350;28;20069;-77
2023/10/01 19:08:54;;;;;;;1.00;0.63;;;;;;;23.24;100.00;102036.44;10441730;28;20439;-77
2023/10/01 19:13:56;;;;;;;0.40;0.30;;;;;;;23.59;100.00;102032.59;10435840;28;20069;-78
2023/10/01 19:18:58;;;;;;;0.25;0.22;;;;;;;23.55;100.00;102036.16;10433216;28;20080;-77
2023/10/01 19:24:00;;;;;;;1.27;0.35;;;;;;;23.65;100.00;102040.41;10416482;28;20549;-77
2023/10/01 19:29:02;;;;;;;2.35;1.13;;;;;;;23.77;100.00;102028.88;10446936;28;20073;-77
2023/10/01 19:34:03;;;;;;;1.10;0.90;;;;;;;23.71;100.00;102035.09;10432493;28;20041;-77
2023/10/01 19:39:05;;;;;;;0.98;0.55;;;;;;;23.88;100.00;102029.63;10439956;28;20496;-77
2023/10/01 19:44:12;;;;;;;0.55;0.38;;;;;;;24.13;100.00;102029.34;10457265;28;20048;-77
2023/10/01 19:49:17;;;;;;;0.73;0.55;;;;;;;23.65;100.00;102027.25;10457246;28;20139;-77
2023/10/01 19:54:18;;;;;;;1.25;0.52;;;;;;;23.36;100.00;102019.69;10411523;28;20049;-77
2023/10/01 19:59:21;;;;;;;0.20;0.00;;;;;;;23.56;100.00;102027.38;10456233;28;20056;-77
2023/10/01 20:04:24;;;;;;;0.70;0.38;;;;;;;22.87;100.00;102024.44;10451829;28;20052;-77
2023/10/01 20:09:27;;;;;;;0.43;0.43;;;;;;;22.90;100.00;102031.41;10456269;28;20049;-77
2023/10/01 20:14:34;;;;;;;0.43;0.17;;;;;;;22.53;100.00;102036.94;10455840;28;20139;-77
2023/10/01 20:19:42;;;;;;;0.45;0.35;;;;;;;22.41;100.00;102030.03;10439336;28;20602;-77
2023/10/01 20:24:49;;;;;;;0.95;0.88;;;;;;;22.27;100.00;102017.78;10438920;28;20488;-77
2023/10/01 20:29:55;;;;;;;3.25;0.70;;;;;;;22.25;100.00;102023.94;10455459;28;20159;-77
2023/10/01 20:34:58;;;;;;;0.30;0.30;;;;;;;22.24;100.00;102019.56;10438399;28;20114;-77
2023/10/01 20:40:08;;;;;;;0.70;0.70;;;;;;;22.14;100.00;102018.72;10456286;28;20041;-77
2023/10/01 20:45:23;;;;;;;0.10;0.10;;;;;;;22.32;100.00;102020.38;10455138;28;20095;-77
2023/10/01 20:50:34;;;;;;;0.38;0.35;;;;;;;21.78;100.00;102011.00;10454475;28;20538;-77
2023/10/01 20:55:37;;;;;;;0.20;0.20;;;;;;;21.81;100.00;102008.38;10454575;28;20381;-77
2023/10/01 21:00:42;;;;;;;0.13;0.10;;;;;;;22.01;100.00;102010.03;10454253;28;20069;-77
2023/10/01 21:05:44;;;;;;;0.55;0.03;;;;;;;21.73;100.00;102010.16;10438106;28;20049;-77
2023/10/01 21:10:46;;;;;;;0.10;0.10;;;;;;;21.32;100.00;102011.09;10454006;28;20055;-77
2023/10/01 21:15:53;;;;;;;0.28;0.20;;;;;;;21.60;100.00;102011.91;10437459;28;20424;-76
2023/10/01 21:20:58;;;;;;;0.30;0.10;;;;;;;21.49;100.00;101998.81;10454147;28;20159;-77
2023/10/01 21:26:00;;;;;;;0.10;0.10;;;;;;;21.87;100.00;101999.63;10453798;28;20049;-77
2023/10/01 21:31:03;;;;;;;0.05;0.05;;;;;;;22.12;100.00;101991.63;10453734;28;20045;-77
2023/10/01 21:36:19;;;;;;;0.35;0.20;;;;;;;21.55;100.00;101992.69;10453757;28;20053;-77
2023/10/01 21:41:21;;;;;;;1.33;0.40;;;;;;;21.28;100.00;101996.22;10437158;28;20049;-77
2023/10/01 21:46:25;;;;;;;1.20;0.88;;;;;;;21.59;100.00;101998.81;10437396;28;20403;-76
2023/10/01 21:51:29;;;;;;;0.00;0.00;;;;;;;21.28;100.00;101996.22;10453139;28;20041;-77
2023/10/01 21:56:35;;;;;;;0.73;0.52;;;;;;;21.26;100.00;101996.25;10454986;28;20488;-76
2023/10/01 22:01:39;;;;;;;0.38;0.10;;;;;;;21.06;100.00;101998.88;10460001;28;20041;-77
2023/10/01 22:06:52;;;;;;;0.88;0.10;;;;;;;20.93;100.00;101998.00;10461539;28;20049;-77
2023/10/01 22:11:55;;;;;;;0.60;0.35;;;;;;;20.49;100.00;101983.97;10461245;28;20056;-77
2023/10/01 22:16:57;;;;;;;0.00;0.00;;;;;;;20.71;100.00;101981.38;10461070;28;20053;-77
2023/10/01 22:21:59;;;;;;;0.32;0.10;;;;;;;20.84;100.00;101985.78;10460821;28;20053;-77
2023/10/01 22:27:03;;;;;;;0.00;0.00;;;;;;;20.80;100.00;101986.66;10460701;28;20052;-77
2023/10/01 22:32:05;;;;;;;0.20;0.20;;;;;;;20.92;100.00;101993.66;10460626;28;20045;-76
2023/10/01 22:37:10;;;;;;;0.05;0.05;;;;;;;20.57;100.00;101984.84;10419248;28;20049;-77
2023/10/01 22:42:22;;;;;;;1.30;0.82;;;;;;;20.66;100.00;101977.88;10428160;28;20049;-77
2023/10/01 22:54:04;;;;;;;0.75;0.68;;;;;;;20.58;100.00;101973.53;10419817;28;20104;-77
2023/10/01 22:59:06;;;;;;;1.30;0.93;;;;;;;21.43;100.00;101983.09;10434974;28;20057;-78
2023/10/01 23:04:11;;;;;;;3.58;2.15;;;;;;;21.74;100.00;101988.28;10434363;28;20037;-77
2023/10/01 23:09:18;;;;;;;5.72;1.67;;;;;;;21.31;100.00;101983.13;10457438;28;20119;-77
2023/10/01 23:14:27;;;;;;;1.52;1.08;;;;;;;21.43;100.00;101987.47;10458763;28;20045;-77
2023/10/01 23:19:36;;;;;;;3.25;1.23;;;;;;;21.05;100.00;101986.63;10458625;28;20136;-78
2023/10/01 23:24:41;;;;;;;2.97;1.65;;;;;;;21.33;100.00;101992.72;10442336;28;20076;-77
2023/10/01 23:29:44;;;;;;;1.67;0.85;;;;;;;21.31;100.00;101991.84;10442106;28;20059;-77
2023/10/01 23:34:53;;;;;;;1.00;0.85;;;;;;;21.71;100.00;102009.28;10458155;28;20052;-77
2023/10/01 23:40:01;;;;;;;0.77;0.47;;;;;;;21.52;100.00;102004.06;10441594;28;20048;-77
2023/10/01 23:45:04;;;;;;;1.90;1.13;;;;;;;21.81;100.00;102000.50;10441373;28;20499;-77
2023/10/01 23:55:26;;;;;;;0.20;0.17;;;;;;;21.91;100.00;101989.97;10457535;28;20052;-77
